sensor_id;sensor_type;location;lat;lon;timestamp;temperature;humidity
52459;DHT22;38372;52.902;6.024;2023-02-18T00:00:38;7.80;99.90
52459;DHT22;38372;52.902;6.024;2023-02-18T00:03:04;7.90;99.90
52459;DHT22;38372;52.902;6.024;2023-02-18T00:05:30;7.90;99.90
52459;DHT22;38372;52.902;6.024;2023-02-18T00:07:56;7.90;99.90
52459;DHT22;38372;52.902;6.024;2023-02-18T00:10:21;7.90;99.90
52459;DHT22;38372;52.902;6.024;2023-02-18T00:12:47;7.90;99.90
52459;DHT22;38372;52.902;6.024;2023-02-18T00:15:13;7.80;99.90
52459;DHT22;38372;52.902;6.024;2023-02-18T00:17:39;7.80;99.90
52459;DHT22;38372;52.902;6.024;2023-02-18T00:20:06;7.80;99.90
52459;DHT22;38372;52.902;6.024;2023-02-18T00:22:32;7.80;99.90
52459;DHT22;38372;52.902;6.024;2023-02-18T00:24:58;7.70;99.90
52459;DHT22;38372;52.902;6.024;2023-02-18T00:27:24;7.70;99.90
52459;DHT22;38372;52.902;6.024;2023-02-18T00:29:49;7.80;99.90
52459;DHT22;38372;52.902;6.024;2023-02-18T00:32:15;7.80;99.90
52459;DHT22;38372;52.902;6.024;2023-02-18T00:34:41;7.80;99.90
52459;DHT22;38372;52.902;6.024;2023-02-18T00:37:06;7.80;99.90
52459;DHT22;38372;52.902;6.024;2023-02-18T00:39:32;7.80;99.90
52459;DHT22;38372;52.902;6.024;2023-02-18T00:41:58;7.80;99.90
52459;DHT22;38372;52.902;6.024;2023-02-18T00:44:24;7.90;99.90
52459;DHT22;38372;52.902;6.024;2023-02-18T00:46:49;7.90;99.90
52459;DHT22;38372;52.902;6.024;2023-02-18T00:49:16;7.90;99.90
52459;DHT22;38372;52.902;6.024;2023-02-18T00:51:42;7.90;99.90
52459;DHT22;38372;52.902;6.024;2023-02-18T00:54:08;8.00;99.90
52459;DHT22;38372;52.902;6.024;2023-02-18T00:56:34;8.00;99.90
52459;DHT22;38372;52.902;6.024;2023-02-18T00:58:59;8.00;99.90
52459;DHT22;38372;52.902;6.024;2023-02-18T01:01:25;8.10;99.90
52459;DHT22;38372;52.902;6.024;2023-02-18T01:03:52;8.10;99.90
52459;DHT22;38372;52.902;6.024;2023-02-18T01:06:18;8.10;99.90
52459;DHT22;38372;52.902;6.024;2023-02-18T01:08:44;8.10;99.90
52459;DHT22;38372;52.902;6.024;2023-02-18T01:11:11;8.10;99.90
52459;DHT22;38372;52.902;6.024;2023-02-18T01:13:38;8.10;99.90
52459;DHT22;38372;52.902;6.024;2023-02-18T01:16:04;8.10;99.90
52459;DHT22;38372;52.902;6.024;2023-02-18T01:18:30;8.10;99.90
52459;DHT22;38372;52.902;6.024;2023-02-18T01:20:56;8.10;99.90
52459;DHT22;38372;52.902;6.024;2023-02-18T01:23:23;8.10;99.90
52459;DHT22;38372;52.902;6.024;2023-02-18T01:25:48;8.20;99.90
52459;DHT22;38372;52.902;6.024;2023-02-18T01:28:15;8.20;99.90
52459;DHT22;38372;52.902;6.024;2023-02-18T01:30:41;8.10;99.90
52459;DHT22;38372;52.902;6.024;2023-02-18T01:33:07;8.20;99.90
52459;DHT22;38372;52.902;6.024;2023-02-18T01:35:33;8.10;99.90
52459;DHT22;38372;52.902;6.024;2023-02-18T01:38:01;8.10;99.90
52459;DHT22;38372;52.902;6.024;2023-02-18T01:40:28;8.10;99.90
52459;DHT22;38372;52.902;6.024;2023-02-18T01:42:55;8.10;99.90
52459;DHT22;38372;52.902;6.024;2023-02-18T01:50:33;8.20;99.90
52459;DHT22;38372;52.902;6.024;2023-02-18T01:53:00;8.20;99.90
52459;DHT22;38372;52.902;6.024;2023-02-18T01:55:27;8.20;99.90
52459;DHT22;38372;52.902;6.024;2023-02-18T01:57:53;8.20;99.90
52459;DHT22;38372;52.902;6.024;2023-02-18T02:00:20;8.20;99.90
52459;DHT22;38372;52.902;6.024;2023-02-18T02:02:51;8.20;99.90
52459;DHT22;38372;52.902;6.024;2023-02-18T02:05:20;8.20;99.90
52459;DHT22;38372;52.902;6.024;2023-02-18T02:07:49;8.20;99.90
52459;DHT22;38372;52.902;6.024;2023-02-18T02:10:16;8.20;99.90
52459;DHT22;38372;52.902;6.024;2023-02-18T02:12:46;8.20;99.90
52459;DHT22;38372;52.902;6.024;2023-02-18T02:15:33;8.20;99.90
52459;DHT22;38372;52.902;6.024;2023-02-18T02:18:21;8.20;99.90
52459;DHT22;38372;52.902;6.024;2023-02-18T02:32:18;8.30;99.90
52459;DHT22;38372;52.902;6.024;2023-02-18T02:35:00;8.20;99.90
52459;DHT22;38372;52.902;6.024;2023-02-18T02:40:37;8.20;99.90
52459;DHT22;38372;52.902;6.024;2023-02-18T02:46:18;8.20;99.90
52459;DHT22;38372;52.902;6.024;2023-02-18T02:49:00;8.20;99.90
52459;DHT22;38372;52.902;6.024;2023-02-18T02:51:40;8.30;99.90
52459;DHT22;38372;52.902;6.024;2023-02-18T02:54:24;8.30;99.90
52459;DHT22;38372;52.902;6.024;2023-02-18T02:57:08;8.40;99.90
52459;DHT22;38372;52.902;6.024;2023-02-18T02:59:37;8.40;99.90
52459;DHT22;38372;52.902;6.024;2023-02-18T03:07:35;8.60;99.90
52459;DHT22;38372;52.902;6.024;2023-02-18T03:15:36;8.70;99.90
52459;DHT22;38372;52.902;6.024;2023-02-18T03:23:45;8.80;99.90
52459;DHT22;38372;52.902;6.024;2023-02-18T03:26:14;8.80;99.90
52459;DHT22;38372;52.902;6.024;2023-02-18T03:28:42;8.90;99.90
52459;DHT22;38372;52.902;6.024;2023-02-18T03:31:12;8.80;99.90
52459;DHT22;38372;52.902;6.024;2023-02-18T03:33:44;8.80;99.90
52459;DHT22;38372;52.902;6.024;2023-02-18T03:36:10;8.80;99.90
52459;DHT22;38372;52.902;6.024;2023-02-18T03:39:02;8.90;99.90
52459;DHT22;38372;52.902;6.024;2023-02-18T03:41:29;8.90;99.90
52459;DHT22;38372;52.902;6.024;2023-02-18T03:44:03;8.90;99.90
52459;DHT22;38372;52.902;6.024;2023-02-18T03:46:30;8.90;99.90
52459;DHT22;38372;52.902;6.024;2023-02-18T03:48:56;8.90;99.90
52459;DHT22;38372;52.902;6.024;2023-02-18T03:51:22;9.00;99.90
52459;DHT22;38372;52.902;6.024;2023-02-18T03:53:48;9.00;99.90
52459;DHT22;38372;52.902;6.024;2023-02-18T03:56:13;9.00;99.90
52459;DHT22;38372;52.902;6.024;2023-02-18T03:58:39;9.00;99.90
52459;DHT22;38372;52.902;6.024;2023-02-18T04:01:05;9.10;99.90
52459;DHT22;38372;52.902;6.024;2023-02-18T04:03:31;9.10;99.90
52459;DHT22;38372;52.902;6.024;2023-02-18T04:05:57;9.10;99.90
52459;DHT22;38372;52.902;6.024;2023-02-18T04:08:23;9.10;99.90
52459;DHT22;38372;52.902;6.024;2023-02-18T04:10:49;9.10;99.90
52459;DHT22;38372;52.902;6.024;2023-02-18T04:13:15;9.10;99.90
52459;DHT22;38372;52.902;6.024;2023-02-18T04:15:43;9.10;99.90
52459;DHT22;38372;52.902;6.024;2023-02-18T04:18:09;9.10;99.90
52459;DHT22;38372;52.902;6.024;2023-02-18T04:20:35;9.20;99.90
52459;DHT22;38372;52.902;6.024;2023-02-18T04:23:02;9.20;99.90
52459;DHT22;38372;52.902;6.024;2023-02-18T04:25:28;9.20;99.90
52459;DHT22;38372;52.902;6.024;2023-02-18T04:27:54;9.20;99.90
52459;DHT22;38372;52.902;6.024;2023-02-18T04:30:20;9.20;99.90
52459;DHT22;38372;52.902;6.024;2023-02-18T04:32:46;9.20;99.90
52459;DHT22;38372;52.902;6.024;2023-02-18T04:35:11;9.20;99.90
52459;DHT22;38372;52.902;6.024;2023-02-18T04:37:37;9.20;99.90
52459;DHT22;38372;52.902;6.024;2023-02-18T04:40:03;9.20;99.90
52459;DHT22;38372;52.902;6.024;2023-02-18T04:42:29;9.20;99.90
52459;DHT22;38372;52.902;6.024;2023-02-18T04:44:55;9.30;99.90
52459;DHT22;38372;52.902;6.024;2023-02-18T04:47:21;9.30;99.90
52459;DHT22;38372;52.902;6.024;2023-02-18T04:49:47;9.30;99.90
52459;DHT22;38372;52.902;6.024;2023-02-18T04:52:12;9.30;99.90
52459;DHT22;38372;52.902;6.024;2023-02-18T04:54:38;9.30;99.90
52459;DHT22;38372;52.902;6.024;2023-02-18T04:57:04;9.30;99.90
52459;DHT22;38372;52.902;6.024;2023-02-18T04:59:30;9.30;99.90
52459;DHT22;38372;52.902;6.024;2023-02-18T05:01:56;9.30;99.90
52459;DHT22;38372;52.902;6.024;2023-02-18T05:04:22;9.30;99.90
52459;DHT22;38372;52.902;6.024;2023-02-18T05:06:47;9.40;99.90
52459;DHT22;38372;52.902;6.024;2023-02-18T05:09:14;9.40;99.90
52459;DHT22;38372;52.902;6.024;2023-02-18T05:11:40;9.40;99.90
52459;DHT22;38372;52.902;6.024;2023-02-18T05:14:06;9.40;99.90
52459;DHT22;38372;52.902;6.024;2023-02-18T05:16:31;9.50;99.90
52459;DHT22;38372;52.902;6.024;2023-02-18T05:18:57;9.50;99.90
52459;DHT22;38372;52.902;6.024;2023-02-18T05:21:23;9.50;99.90
52459;DHT22;38372;52.902;6.024;2023-02-18T05:23:49;9.50;99.90
52459;DHT22;38372;52.902;6.024;2023-02-18T05:26:14;9.50;99.90
52459;DHT22;38372;52.902;6.024;2023-02-18T05:28:40;9.50;99.90
52459;DHT22;38372;52.902;6.024;2023-02-18T05:31:06;9.50;99.90
52459;DHT22;38372;52.902;6.024;2023-02-18T05:33:32;9.50;99.90
52459;DHT22;38372;52.902;6.024;2023-02-18T05:35:57;9.50;99.90
52459;DHT22;38372;52.902;6.024;2023-02-18T05:38:23;9.50;99.90
52459;DHT22;38372;52.902;6.024;2023-02-18T05:40:49;9.50;99.90
52459;DHT22;38372;52.902;6.024;2023-02-18T05:43:15;9.50;99.90
52459;DHT22;38372;52.902;6.024;2023-02-18T05:45:41;9.50;99.90
52459;DHT22;38372;52.902;6.024;2023-02-18T05:48:07;9.50;99.90
52459;DHT22;38372;52.902;6.024;2023-02-18T05:50:33;9.50;99.90
52459;DHT22;38372;52.902;6.024;2023-02-18T05:52:59;9.50;99.90
52459;DHT22;38372;52.902;6.024;2023-02-18T05:55:25;9.50;99.90
52459;DHT22;38372;52.902;6.024;2023-02-18T05:57:50;9.50;99.90
52459;DHT22;38372;52.902;6.024;2023-02-18T06:00:17;9.50;99.90
52459;DHT22;38372;52.902;6.024;2023-02-18T06:02:43;9.50;99.90
52459;DHT22;38372;52.902;6.024;2023-02-18T06:05:09;9.50;99.90
52459;DHT22;38372;52.902;6.024;2023-02-18T06:07:35;9.50;99.90
52459;DHT22;38372;52.902;6.024;2023-02-18T06:10:01;9.50;99.90
52459;DHT22;38372;52.902;6.024;2023-02-18T06:12:27;9.50;99.90
52459;DHT22;38372;52.902;6.024;2023-02-18T06:14:52;9.50;99.90
52459;DHT22;38372;52.902;6.024;2023-02-18T06:17:18;9.50;99.90
52459;DHT22;38372;52.902;6.024;2023-02-18T06:19:45;9.50;99.90
52459;DHT22;38372;52.902;6.024;2023-02-18T06:22:11;9.50;99.90
52459;DHT22;38372;52.902;6.024;2023-02-18T06:24:37;9.60;99.90
52459;DHT22;38372;52.902;6.024;2023-02-18T06:27:03;9.60;99.90
52459;DHT22;38372;52.902;6.024;2023-02-18T06:29:29;9.60;99.90
52459;DHT22;38372;52.902;6.024;2023-02-18T06:31:57;9.60;99.90
52459;DHT22;38372;52.902;6.024;2023-02-18T06:34:23;9.70;99.90
52459;DHT22;38372;52.902;6.024;2023-02-18T06:36:48;9.70;99.90
52459;DHT22;38372;52.902;6.024;2023-02-18T06:39:14;9.80;99.90
52459;DHT22;38372;52.902;6.024;2023-02-18T06:41:40;9.80;99.90
52459;DHT22;38372;52.902;6.024;2023-02-18T06:44:06;9.80;99.90
52459;DHT22;38372;52.902;6.024;2023-02-18T06:46:32;9.80;99.90
52459;DHT22;38372;52.902;6.024;2023-02-18T06:48:58;9.80;99.90
52459;DHT22;38372;52.902;6.024;2023-02-18T06:51:24;9.90;99.90
52459;DHT22;38372;52.902;6.024;2023-02-18T06:53:50;9.90;99.90
52459;DHT22;38372;52.902;6.024;2023-02-18T06:56:16;9.90;99.90
52459;DHT22;38372;52.902;6.024;2023-02-18T06:58:41;9.90;99.90
52459;DHT22;38372;52.902;6.024;2023-02-18T07:01:07;9.90;99.90
52459;DHT22;38372;52.902;6.024;2023-02-18T07:03:33;10.00;99.90
52459;DHT22;38372;52.902;6.024;2023-02-18T07:05:59;9.90;99.90
52459;DHT22;38372;52.902;6.024;2023-02-18T07:08:25;10.00;99.90
52459;DHT22;38372;52.902;6.024;2023-02-18T07:10:51;10.00;99.90
52459;DHT22;38372;52.902;6.024;2023-02-18T07:13:17;10.00;99.90
52459;DHT22;38372;52.902;6.024;2023-02-18T07:15:42;10.00;99.90
52459;DHT22;38372;52.902;6.024;2023-02-18T07:18:08;10.00;99.90
52459;DHT22;38372;52.902;6.024;2023-02-18T07:20:34;9.90;99.90
52459;DHT22;38372;52.902;6.024;2023-02-18T07:23:00;9.90;99.90
52459;DHT22;38372;52.902;6.024;2023-02-18T07:25:26;9.90;99.90
52459;DHT22;38372;52.902;6.024;2023-02-18T07:27:52;9.90;99.90
52459;DHT22;38372;52.902;6.024;2023-02-18T07:30:19;9.90;99.90
52459;DHT22;38372;52.902;6.024;2023-02-18T07:32:45;9.90;99.90
52459;DHT22;38372;52.902;6.024;2023-02-18T07:35:13;9.90;99.90
52459;DHT22;38372;52.902;6.024;2023-02-18T07:37:44;9.90;99.90
52459;DHT22;38372;52.902;6.024;2023-02-18T07:40:12;9.90;99.90
52459;DHT22;38372;52.902;6.024;2023-02-18T07:42:38;9.90;99.90
52459;DHT22;38372;52.902;6.024;2023-02-18T07:45:04;9.90;99.90
52459;DHT22;38372;52.902;6.024;2023-02-18T07:47:30;9.80;99.90
52459;DHT22;38372;52.902;6.024;2023-02-18T07:49:56;9.90;99.90
52459;DHT22;38372;52.902;6.024;2023-02-18T07:52:21;9.90;99.90
52459;DHT22;38372;52.902;6.024;2023-02-18T07:54:47;9.90;99.90
52459;DHT22;38372;52.902;6.024;2023-02-18T07:57:14;9.90;99.90
52459;DHT22;38372;52.902;6.024;2023-02-18T07:59:39;9.90;99.90
52459;DHT22;38372;52.902;6.024;2023-02-18T08:02:06;9.90;99.90
52459;DHT22;38372;52.902;6.024;2023-02-18T08:04:32;9.90;99.90
52459;DHT22;38372;52.902;6.024;2023-02-18T08:06:58;9.90;99.90
52459;DHT22;38372;52.902;6.024;2023-02-18T08:09:24;9.90;99.90
52459;DHT22;38372;52.902;6.024;2023-02-18T08:11:50;9.90;99.90
52459;DHT22;38372;52.902;6.024;2023-02-18T08:14:16;9.90;99.90
52459;DHT22;38372;52.902;6.024;2023-02-18T08:16:41;9.90;99.90
52459;DHT22;38372;52.902;6.024;2023-02-18T08:19:07;9.90;99.90
52459;DHT22;38372;52.902;6.024;2023-02-18T08:21:33;9.90;99.90
52459;DHT22;38372;52.902;6.024;2023-02-18T08:23:59;9.90;99.90
52459;DHT22;38372;52.902;6.024;2023-02-18T08:26:25;10.00;99.90
52459;DHT22;38372;52.902;6.024;2023-02-18T08:28:51;9.90;99.90
52459;DHT22;38372;52.902;6.024;2023-02-18T08:31:24;9.90;99.90
52459;DHT22;38372;52.902;6.024;2023-02-18T08:33:50;9.90;99.90
52459;DHT22;38372;52.902;6.024;2023-02-18T08:36:17;9.90;99.90
52459;DHT22;38372;52.902;6.024;2023-02-18T08:38:43;10.00;99.90
52459;DHT22;38372;52.902;6.024;2023-02-18T08:41:09;9.90;99.90
52459;DHT22;38372;52.902;6.024;2023-02-18T08:43:35;10.00;99.90
52459;DHT22;38372;52.902;6.024;2023-02-18T08:46:01;10.00;99.90
52459;DHT22;38372;52.902;6.024;2023-02-18T08:48:28;9.90;99.90
52459;DHT22;38372;52.902;6.024;2023-02-18T08:50:54;9.90;99.90
52459;DHT22;38372;52.902;6.024;2023-02-18T08:53:20;9.80;99.90
52459;DHT22;38372;52.902;6.024;2023-02-18T08:55:46;9.80;99.90
52459;DHT22;38372;52.902;6.024;2023-02-18T08:58:12;9.70;99.90
52459;DHT22;38372;52.902;6.024;2023-02-18T09:00:39;9.70;99.90
52459;DHT22;38372;52.902;6.024;2023-02-18T09:03:05;9.70;99.90
52459;DHT22;38372;52.902;6.024;2023-02-18T09:05:32;9.70;99.90
52459;DHT22;38372;52.902;6.024;2023-02-18T09:07:58;9.70;99.90
52459;DHT22;38372;52.902;6.024;2023-02-18T09:10:23;9.70;99.90
52459;DHT22;38372;52.902;6.024;2023-02-18T09:12:49;9.70;99.90
52459;DHT22;38372;52.902;6.024;2023-02-18T09:15:15;9.60;99.90
52459;DHT22;38372;52.902;6.024;2023-02-18T09:17:41;9.70;99.90
52459;DHT22;38372;52.902;6.024;2023-02-18T09:20:08;9.60;99.90
52459;DHT22;38372;52.902;6.024;2023-02-18T09:22:33;9.70;99.90
52459;DHT22;38372;52.902;6.024;2023-02-18T09:24:59;9.70;99.90
52459;DHT22;38372;52.902;6.024;2023-02-18T09:27:25;9.70;99.90
52459;DHT22;38372;52.902;6.024;2023-02-18T09:29:51;9.80;99.90
52459;DHT22;38372;52.902;6.024;2023-02-18T09:32:17;9.80;99.90
52459;DHT22;38372;52.902;6.024;2023-02-18T09:34:43;9.70;99.90
52459;DHT22;38372;52.902;6.024;2023-02-18T09:37:10;9.70;99.90
52459;DHT22;38372;52.902;6.024;2023-02-18T09:39:36;9.70;99.90
52459;DHT22;38372;52.902;6.024;2023-02-18T09:42:04;9.70;99.90
52459;DHT22;38372;52.902;6.024;2023-02-18T09:44:35;9.70;99.90
52459;DHT22;38372;52.902;6.024;2023-02-18T09:47:16;9.80;99.90
52459;DHT22;38372;52.902;6.024;2023-02-18T09:49:50;9.70;99.90
52459;DHT22;38372;52.902;6.024;2023-02-18T09:52:27;9.80;99.90
52459;DHT22;38372;52.902;6.024;2023-02-18T09:54:54;9.90;99.90
52459;DHT22;38372;52.902;6.024;2023-02-18T10:00:17;10.00;99.90
52459;DHT22;38372;52.902;6.024;2023-02-18T10:02:54;10.20;99.90
52459;DHT22;38372;52.902;6.024;2023-02-18T10:05:21;10.30;99.90
52459;DHT22;38372;52.902;6.024;2023-02-18T10:07:48;10.60;99.90
52459;DHT22;38372;52.902;6.024;2023-02-18T10:10:42;10.70;99.90
52459;DHT22;38372;52.902;6.024;2023-02-18T10:13:20;10.80;99.90
52459;DHT22;38372;52.902;6.024;2023-02-18T10:15:47;10.90;99.90
52459;DHT22;38372;52.902;6.024;2023-02-18T10:21:29;11.10;99.90
52459;DHT22;38372;52.902;6.024;2023-02-18T10:24:01;11.00;99.90
52459;DHT22;38372;52.902;6.024;2023-02-18T10:26:30;10.90;99.90
52459;DHT22;38372;52.902;6.024;2023-02-18T10:28:58;10.80;99.90
52459;DHT22;38372;52.902;6.024;2023-02-18T10:31:37;10.80;99.90
52459;DHT22;38372;52.902;6.024;2023-02-18T10:36:46;10.90;99.90
52459;DHT22;38372;52.902;6.024;2023-02-18T10:39:38;11.00;99.90
52459;DHT22;38372;52.902;6.024;2023-02-18T10:45:20;11.70;99.90
52459;DHT22;38372;52.902;6.024;2023-02-18T10:50:36;13.20;99.90
52459;DHT22;38372;52.902;6.024;2023-02-18T10:53:38;13.60;99.90
52459;DHT22;38372;52.902;6.024;2023-02-18T10:56:06;13.30;99.90
52459;DHT22;38372;52.902;6.024;2023-02-18T10:58:35;12.80;99.90
52459;DHT22;38372;52.902;6.024;2023-02-18T11:01:05;12.30;99.90
52459;DHT22;38372;52.902;6.024;2023-02-18T11:04:56;12.00;99.90
52459;DHT22;38372;52.902;6.024;2023-02-18T11:06:51;11.80;99.90
52459;DHT22;38372;52.902;6.024;2023-02-18T11:09:28;11.70;99.90
52459;DHT22;38372;52.902;6.024;2023-02-18T11:12:04;11.60;99.90
52459;DHT22;38372;52.902;6.024;2023-02-18T11:17:35;11.50;99.90
52459;DHT22;38372;52.902;6.024;2023-02-18T11:20:28;11.40;99.90
52459;DHT22;38372;52.902;6.024;2023-02-18T11:25:38;11.40;99.90
52459;DHT22;38372;52.902;6.024;2023-02-18T11:28:23;11.40;99.90
52459;DHT22;38372;52.902;6.024;2023-02-18T11:30:56;11.40;99.90
52459;DHT22;38372;52.902;6.024;2023-02-18T11:33:43;11.40;99.90
52459;DHT22;38372;52.902;6.024;2023-02-18T11:36:20;11.50;99.90
52459;DHT22;38372;52.902;6.024;2023-02-18T11:38:50;11.60;99.90
52459;DHT22;38372;52.902;6.024;2023-02-18T11:41:17;11.60;99.90
52459;DHT22;38372;52.902;6.024;2023-02-18T11:43:48;11.70;99.90
52459;DHT22;38372;52.902;6.024;2023-02-18T11:46:20;11.70;99.90
52459;DHT22;38372;52.902;6.024;2023-02-18T11:48:48;11.80;99.90
52459;DHT22;38372;52.902;6.024;2023-02-18T11:51:18;12.00;99.90
52459;DHT22;38372;52.902;6.024;2023-02-18T11:53:58;12.00;99.90
52459;DHT22;38372;52.902;6.024;2023-02-18T11:56:27;12.00;99.90
52459;DHT22;38372;52.902;6.024;2023-02-18T11:58:53;12.00;99.90
52459;DHT22;38372;52.902;6.024;2023-02-18T12:04:23;12.00;99.90
52459;DHT22;38372;52.902;6.024;2023-02-18T12:12:09;12.20;99.90
52459;DHT22;38372;52.902;6.024;2023-02-18T12:14:36;12.30;99.90
52459;DHT22;38372;52.902;6.024;2023-02-18T12:22:44;12.30;99.90
52459;DHT22;38372;52.902;6.024;2023-02-18T12:38:38;12.20;99.90
52459;DHT22;38372;52.902;6.024;2023-02-18T12:41:48;12.20;99.90
52459;DHT22;38372;52.902;6.024;2023-02-18T12:53:00;12.30;99.90
52459;DHT22;38372;52.902;6.024;2023-02-18T13:14:49;12.30;99.90
52459;DHT22;38372;52.902;6.024;2023-02-18T13:17:23;12.20;99.90
52459;DHT22;38372;52.902;6.024;2023-02-18T13:20:04;12.10;99.90
52459;DHT22;38372;52.902;6.024;2023-02-18T13:22:32;12.00;99.90
52459;DHT22;38372;52.902;6.024;2023-02-18T13:24:58;11.90;99.90
52459;DHT22;38372;52.902;6.024;2023-02-18T13:27:32;11.90;99.90
52459;DHT22;38372;52.902;6.024;2023-02-18T13:30:26;11.80;99.90
52459;DHT22;38372;52.902;6.024;2023-02-18T13:35:46;11.70;99.90
52459;DHT22;38372;52.902;6.024;2023-02-18T13:40:58;11.60;99.90
52459;DHT22;38372;52.902;6.024;2023-02-18T13:43:30;11.60;99.90
52459;DHT22;38372;52.902;6.024;2023-02-18T13:46:18;11.60;99.90
52459;DHT22;38372;52.902;6.024;2023-02-18T13:49:06;11.50;99.90
52459;DHT22;38372;52.902;6.024;2023-02-18T13:51:39;11.50;99.90
52459;DHT22;38372;52.902;6.024;2023-02-18T13:56:53;11.50;99.90
52459;DHT22;38372;52.902;6.024;2023-02-18T14:01:51;11.50;99.90
52459;DHT22;38372;52.902;6.024;2023-02-18T14:26:05;11.50;99.90
52459;DHT22;38372;52.902;6.024;2023-02-18T14:33:36;11.70;99.90
52459;DHT22;38372;52.902;6.024;2023-02-18T14:36:35;11.70;99.90
52459;DHT22;38372;52.902;6.024;2023-02-18T14:39:21;11.60;99.90
52459;DHT22;38372;52.902;6.024;2023-02-18T14:47:44;11.40;99.90
52459;DHT22;38372;52.902;6.024;2023-02-18T14:50:17;11.40;99.90
52459;DHT22;38372;52.902;6.024;2023-02-18T14:52:56;11.30;99.90
52459;DHT22;38372;52.902;6.024;2023-02-18T14:55:26;11.20;99.90
52459;DHT22;38372;52.902;6.024;2023-02-18T14:57:54;11.20;99.90
52459;DHT22;38372;52.902;6.024;2023-02-18T15:00:23;11.20;99.90
52459;DHT22;38372;52.902;6.024;2023-02-18T15:02:52;11.20;99.90
52459;DHT22;38372;52.902;6.024;2023-02-18T15:05:24;11.10;99.90
52459;DHT22;38372;52.902;6.024;2023-02-18T15:07:55;11.10;99.90
52459;DHT22;38372;52.902;6.024;2023-02-18T15:10:24;11.00;99.90
52459;DHT22;38372;52.902;6.024;2023-02-18T15:12:50;11.00;99.90
52459;DHT22;38372;52.902;6.024;2023-02-18T15:15:16;10.90;99.90
52459;DHT22;38372;52.902;6.024;2023-02-18T15:17:47;10.90;99.90
52459;DHT22;38372;52.902;6.024;2023-02-18T15:20:14;10.80;99.90
52459;DHT22;38372;52.902;6.024;2023-02-18T15:22:40;10.80;99.90
52459;DHT22;38372;52.902;6.024;2023-02-18T15:25:10;10.80;99.90
52459;DHT22;38372;52.902;6.024;2023-02-18T15:27:40;10.80;99.90
52459;DHT22;38372;52.902;6.024;2023-02-18T15:30:29;10.80;99.90
52459;DHT22;38372;52.902;6.024;2023-02-18T15:32:57;10.70;99.90
52459;DHT22;38372;52.902;6.024;2023-02-18T15:35:32;10.80;99.90
52459;DHT22;38372;52.902;6.024;2023-02-18T15:37:59;10.80;99.90
52459;DHT22;38372;52.902;6.024;2023-02-18T15:40:30;10.70;99.90
52459;DHT22;38372;52.902;6.024;2023-02-18T15:42:58;10.70;99.90
52459;DHT22;38372;52.902;6.024;2023-02-18T15:47:56;10.70;99.90
52459;DHT22;38372;52.902;6.024;2023-02-18T15:50:26;10.60;99.90
52459;DHT22;38372;52.902;6.024;2023-02-18T15:52:55;10.60;99.90
52459;DHT22;38372;52.902;6.024;2023-02-18T15:55:34;10.60;99.90
52459;DHT22;38372;52.902;6.024;2023-02-18T15:58:06;10.60;99.90
52459;DHT22;38372;52.902;6.024;2023-02-18T16:00:38;10.60;99.90
52459;DHT22;38372;52.902;6.024;2023-02-18T16:05:49;10.50;99.90
52459;DHT22;38372;52.902;6.024;2023-02-18T16:08:26;10.50;99.90
52459;DHT22;38372;52.902;6.024;2023-02-18T16:11:01;10.40;99.90
52459;DHT22;38372;52.902;6.024;2023-02-18T16:13:27;10.40;99.90
52459;DHT22;38372;52.902;6.024;2023-02-18T16:15:56;10.40;99.90
52459;DHT22;38372;52.902;6.024;2023-02-18T16:18:26;10.30;99.90
52459;DHT22;38372;52.902;6.024;2023-02-18T16:20:56;10.30;99.90
52459;DHT22;38372;52.902;6.024;2023-02-18T16:23:29;10.30;99.90
52459;DHT22;38372;52.902;6.024;2023-02-18T16:25:55;10.30;99.90
52459;DHT22;38372;52.902;6.024;2023-02-18T16:30:49;10.20;99.90
52459;DHT22;38372;52.902;6.024;2023-02-18T16:33:14;10.20;99.90
52459;DHT22;38372;52.902;6.024;2023-02-18T16:35:41;10.20;99.90
52459;DHT22;38372;52.902;6.024;2023-02-18T16:38:17;10.20;99.90
52459;DHT22;38372;52.902;6.024;2023-02-18T16:40:44;10.20;99.90
52459;DHT22;38372;52.902;6.024;2023-02-18T16:43:21;10.10;99.90
52459;DHT22;38372;52.902;6.024;2023-02-18T16:45:50;10.10;99.90
52459;DHT22;38372;52.902;6.024;2023-02-18T16:48:20;10.20;99.90
52459;DHT22;38372;52.902;6.024;2023-02-18T16:50:49;10.10;99.90
52459;DHT22;38372;52.902;6.024;2023-02-18T16:53:15;10.20;99.90
52459;DHT22;38372;52.902;6.024;2023-02-18T16:55:41;10.20;99.90
52459;DHT22;38372;52.902;6.024;2023-02-18T16:58:07;10.10;99.90
52459;DHT22;38372;52.902;6.024;2023-02-18T17:00:33;10.10;99.90
52459;DHT22;38372;52.902;6.024;2023-02-18T17:02:59;10.10;99.90
52459;DHT22;38372;52.902;6.024;2023-02-18T17:05:28;10.10;99.90
52459;DHT22;38372;52.902;6.024;2023-02-18T17:08:05;10.00;99.90
52459;DHT22;38372;52.902;6.024;2023-02-18T17:10:36;10.00;99.90
52459;DHT22;38372;52.902;6.024;2023-02-18T17:13:02;10.00;99.90
52459;DHT22;38372;52.902;6.024;2023-02-18T17:15:33;10.00;99.90
52459;DHT22;38372;52.902;6.024;2023-02-18T17:18:00;10.00;99.90
52459;DHT22;38372;52.902;6.024;2023-02-18T17:20:27;10.00;99.90
52459;DHT22;38372;52.902;6.024;2023-02-18T17:22:55;10.00;99.90
52459;DHT22;38372;52.902;6.024;2023-02-18T17:25:35;9.90;99.90
52459;DHT22;38372;52.902;6.024;2023-02-18T17:28:03;9.90;99.90
52459;DHT22;38372;52.902;6.024;2023-02-18T17:30:30;9.90;99.90
52459;DHT22;38372;52.902;6.024;2023-02-18T17:32:59;9.90;99.90
52459;DHT22;38372;52.902;6.024;2023-02-18T17:35:25;9.90;99.90
52459;DHT22;38372;52.902;6.024;2023-02-18T17:37:51;9.90;99.90
52459;DHT22;38372;52.902;6.024;2023-02-18T17:40:22;9.90;99.90
52459;DHT22;38372;52.902;6.024;2023-02-18T17:42:48;9.90;99.90
52459;DHT22;38372;52.902;6.024;2023-02-18T17:45:27;9.90;99.90
52459;DHT22;38372;52.902;6.024;2023-02-18T17:47:55;9.90;99.90
52459;DHT22;38372;52.902;6.024;2023-02-18T17:50:22;9.90;99.90
52459;DHT22;38372;52.902;6.024;2023-02-18T17:52:47;9.90;99.90
52459;DHT22;38372;52.902;6.024;2023-02-18T17:55:28;9.90;99.90
52459;DHT22;38372;52.902;6.024;2023-02-18T17:57:55;9.90;99.90
52459;DHT22;38372;52.902;6.024;2023-02-18T18:00:30;9.90;99.90
52459;DHT22;38372;52.902;6.024;2023-02-18T18:02:57;9.90;99.90
52459;DHT22;38372;52.902;6.024;2023-02-18T18:05:24;9.90;99.90
52459;DHT22;38372;52.902;6.024;2023-02-18T18:07:51;9.80;99.90
52459;DHT22;38372;52.902;6.024;2023-02-18T18:10:19;9.80;99.90
52459;DHT22;38372;52.902;6.024;2023-02-18T18:12:47;9.80;99.90
52459;DHT22;38372;52.902;6.024;2023-02-18T18:18:16;9.80;99.90
52459;DHT22;38372;52.902;6.024;2023-02-18T18:20:45;9.80;99.90
52459;DHT22;38372;52.902;6.024;2023-02-18T18:23:13;9.80;99.90
52459;DHT22;38372;52.902;6.024;2023-02-18T18:25:44;9.80;99.90
52459;DHT22;38372;52.902;6.024;2023-02-18T18:28:11;9.80;99.90
52459;DHT22;38372;52.902;6.024;2023-02-18T18:30:39;9.70;99.90
52459;DHT22;38372;52.902;6.024;2023-02-18T18:33:16;9.80;99.90
52459;DHT22;38372;52.902;6.024;2023-02-18T18:35:44;9.70;99.90
52459;DHT22;38372;52.902;6.024;2023-02-18T18:38:11;9.80;99.90
52459;DHT22;38372;52.902;6.024;2023-02-18T18:40:37;9.70;99.90